Tempe, Arizona
Current Conditions -  °F | °C
As of 8:51 AM on Sunday 23 Nov 2014 (Local Time) from KPHX Reporting Station
Broken Clouds Broken Clouds  
Wind Chill: 53°   Ceiling: 23000
Heat Index: 53°   Visibility: 10mi
Dew Point: 32°   Wind: 6mph
Humidity: 45%   Direction: 110°ESE
Pressure: 30.05"   Gusts: NA
Location:  33.43°N, 111.93°W
Report Text: KPHX 231551Z 11005KT 10SM BKN230 12/00 A3005 RMK AO2 SLP168 T01170000
Loading
Personal Weather Stations






























Interactive Weather Map New forecast layout! Learn more

10-Day Weather Forecast

Advertisements
Track Severe Weather on mobile